Terminal Aerodrome Forecast
Issued by NWS

Home | Current Version | Previous Version | Text Only | Print | Product List | Glossary On
Versions: 1 2 3 4 5 6 7 8 9 10 11 12 13 14 15 16 17 18 19 20 21 22 23 24
000
FTUS42 KJAX 290104 AAA
TAFCRG
TAF AMD
KCRG 290104Z 2901/2924 09006KT P6SM FEW040 SCT250
     FM290200 VRB03KT P6SM SCT250
      TEMPO 2910/2914 BKN025
     FM291400 02005KT P6SM SCT025
     FM291700 05007KT P6SM SCT025 SCT250=

USA.gov is the U.S. government's official web portal to all federal, state and local government web resources and services.